sensor_id;sensor_type;location;lat;lon;timestamp;temperature;humidity
25718;DHT22;13574;52.040;5.692;2023-04-06T00:01:36;8.90;93.20
25718;DHT22;13574;52.040;5.692;2023-04-06T00:04:01;9.00;93.10
25718;DHT22;13574;52.040;5.692;2023-04-06T00:06:27;8.90;93.20
25718;DHT22;13574;52.040;5.692;2023-04-06T00:08:54;8.90;93.00
25718;DHT22;13574;52.040;5.692;2023-04-06T00:11:20;8.80;93.20
25718;DHT22;13574;52.040;5.692;2023-04-06T00:13:46;8.90;93.30
25718;DHT22;13574;52.040;5.692;2023-04-06T00:16:12;8.90;93.30
25718;DHT22;13574;52.040;5.692;2023-04-06T00:18:37;9.00;93.00
25718;DHT22;13574;52.040;5.692;2023-04-06T00:21:03;9.00;93.10
25718;DHT22;13574;52.040;5.692;2023-04-06T00:23:29;8.90;93.10
25718;DHT22;13574;52.040;5.692;2023-04-06T00:25:55;8.90;92.90
25718;DHT22;13574;52.040;5.692;2023-04-06T00:28:21;9.00;92.80
25718;DHT22;13574;52.040;5.692;2023-04-06T00:30:51;9.00;92.90
25718;DHT22;13574;52.040;5.692;2023-04-06T00:33:18;9.00;92.60
25718;DHT22;13574;52.040;5.692;2023-04-06T00:35:45;9.00;92.90
25718;DHT22;13574;52.040;5.692;2023-04-06T00:38:11;9.10;92.60
25718;DHT22;13574;52.040;5.692;2023-04-06T00:40:37;9.10;92.80
25718;DHT22;13574;52.040;5.692;2023-04-06T00:43:07;9.10;92.70
25718;DHT22;13574;52.040;5.692;2023-04-06T00:45:34;9.10;92.70
25718;DHT22;13574;52.040;5.692;2023-04-06T00:48:00;9.00;93.10
25718;DHT22;13574;52.040;5.692;2023-04-06T00:50:27;8.90;94.20
25718;DHT22;13574;52.040;5.692;2023-04-06T00:52:55;8.90;93.80
25718;DHT22;13574;52.040;5.692;2023-04-06T00:55:21;9.00;93.00
25718;DHT22;13574;52.040;5.692;2023-04-06T00:57:47;9.10;92.60
25718;DHT22;13574;52.040;5.692;2023-04-06T01:00:13;9.10;93.00
25718;DHT22;13574;52.040;5.692;2023-04-06T01:02:39;8.90;92.60
25718;DHT22;13574;52.040;5.692;2023-04-06T01:05:06;9.00;92.90
25718;DHT22;13574;52.040;5.692;2023-04-06T01:07:32;9.00;92.40
25718;DHT22;13574;52.040;5.692;2023-04-06T01:09:58;9.10;92.40
25718;DHT22;13574;52.040;5.692;2023-04-06T01:12:24;9.00;92.20
25718;DHT22;13574;52.040;5.692;2023-04-06T01:14:49;9.00;93.00
25718;DHT22;13574;52.040;5.692;2023-04-06T01:17:15;9.00;92.80
25718;DHT22;13574;52.040;5.692;2023-04-06T01:19:41;9.10;92.40
25718;DHT22;13574;52.040;5.692;2023-04-06T01:22:07;9.20;92.10
25718;DHT22;13574;52.040;5.692;2023-04-06T01:24:33;9.10;92.20
25718;DHT22;13574;52.040;5.692;2023-04-06T01:26:59;9.10;92.30
25718;DHT22;13574;52.040;5.692;2023-04-06T01:29:26;9.10;92.40
25718;DHT22;13574;52.040;5.692;2023-04-06T01:31:51;9.10;91.90
25718;DHT22;13574;52.040;5.692;2023-04-06T01:34:17;9.00;92.20
25718;DHT22;13574;52.040;5.692;2023-04-06T01:36:43;9.00;93.30
25718;DHT22;13574;52.040;5.692;2023-04-06T01:39:09;9.00;93.90
25718;DHT22;13574;52.040;5.692;2023-04-06T01:41:35;9.00;93.00
25718;DHT22;13574;52.040;5.692;2023-04-06T01:44:01;9.10;93.10
25718;DHT22;13574;52.040;5.692;2023-04-06T01:46:27;9.10;92.80
25718;DHT22;13574;52.040;5.692;2023-04-06T01:48:53;9.00;92.80
25718;DHT22;13574;52.040;5.692;2023-04-06T01:51:19;9.00;92.30
25718;DHT22;13574;52.040;5.692;2023-04-06T01:53:44;9.00;92.30
25718;DHT22;13574;52.040;5.692;2023-04-06T01:56:10;9.10;92.40
25718;DHT22;13574;52.040;5.692;2023-04-06T01:58:36;9.00;92.30
25718;DHT22;13574;52.040;5.692;2023-04-06T02:01:02;9.00;92.90
25718;DHT22;13574;52.040;5.692;2023-04-06T02:03:27;9.00;92.50
25718;DHT22;13574;52.040;5.692;2023-04-06T02:05:53;9.10;92.60
25718;DHT22;13574;52.040;5.692;2023-04-06T02:08:19;9.10;92.80
25718;DHT22;13574;52.040;5.692;2023-04-06T02:10:45;9.10;92.30
25718;DHT22;13574;52.040;5.692;2023-04-06T02:13:10;9.20;92.60
25718;DHT22;13574;52.040;5.692;2023-04-06T02:15:36;9.20;92.40
25718;DHT22;13574;52.040;5.692;2023-04-06T02:18:02;9.30;92.70
25718;DHT22;13574;52.040;5.692;2023-04-06T02:20:27;9.30;92.50
25718;DHT22;13574;52.040;5.692;2023-04-06T02:22:53;9.40;92.50
25718;DHT22;13574;52.040;5.692;2023-04-06T02:25:19;9.40;92.60
25718;DHT22;13574;52.040;5.692;2023-04-06T02:27:44;9.40;92.60
25718;DHT22;13574;52.040;5.692;2023-04-06T02:30:10;9.40;92.20
25718;DHT22;13574;52.040;5.692;2023-04-06T02:32:36;9.40;92.20
25718;DHT22;13574;52.040;5.692;2023-04-06T02:35:02;9.60;92.00
25718;DHT22;13574;52.040;5.692;2023-04-06T02:37:28;9.50;92.10
25718;DHT22;13574;52.040;5.692;2023-04-06T02:39:53;9.50;92.10
25718;DHT22;13574;52.040;5.692;2023-04-06T02:42:19;9.60;92.30
25718;DHT22;13574;52.040;5.692;2023-04-06T02:44:45;9.60;92.20
25718;DHT22;13574;52.040;5.692;2023-04-06T02:47:11;9.60;92.60
25718;DHT22;13574;52.040;5.692;2023-04-06T02:49:37;9.60;92.40
25718;DHT22;13574;52.040;5.692;2023-04-06T02:52:03;9.90;91.80
25718;DHT22;13574;52.040;5.692;2023-04-06T02:54:29;9.80;92.00
25718;DHT22;13574;52.040;5.692;2023-04-06T02:56:54;9.90;91.90
25718;DHT22;13574;52.040;5.692;2023-04-06T02:59:20;9.80;91.80
25718;DHT22;13574;52.040;5.692;2023-04-06T03:01:46;9.90;91.80
25718;DHT22;13574;52.040;5.692;2023-04-06T03:04:11;9.80;92.30
25718;DHT22;13574;52.040;5.692;2023-04-06T03:06:37;9.90;92.90
25718;DHT22;13574;52.040;5.692;2023-04-06T03:09:03;9.90;92.60
25718;DHT22;13574;52.040;5.692;2023-04-06T03:11:29;9.90;92.40
25718;DHT22;13574;52.040;5.692;2023-04-06T03:13:55;9.90;92.50
25718;DHT22;13574;52.040;5.692;2023-04-06T03:16:20;9.90;92.30
25718;DHT22;13574;52.040;5.692;2023-04-06T03:18:46;9.90;92.90
25718;DHT22;13574;52.040;5.692;2023-04-06T03:21:13;9.90;93.20
25718;DHT22;13574;52.040;5.692;2023-04-06T03:23:40;10.00;93.10
25718;DHT22;13574;52.040;5.692;2023-04-06T03:26:06;10.00;92.10
25718;DHT22;13574;52.040;5.692;2023-04-06T03:28:32;9.90;91.90
25718;DHT22;13574;52.040;5.692;2023-04-06T03:30:57;10.00;92.20
25718;DHT22;13574;52.040;5.692;2023-04-06T03:33:23;10.00;92.00
25718;DHT22;13574;52.040;5.692;2023-04-06T03:35:49;10.00;91.80
25718;DHT22;13574;52.040;5.692;2023-04-06T03:38:15;10.10;91.70
25718;DHT22;13574;52.040;5.692;2023-04-06T03:40:41;10.00;92.00
25718;DHT22;13574;52.040;5.692;2023-04-06T03:43:08;10.00;92.10
25718;DHT22;13574;52.040;5.692;2023-04-06T03:45:34;9.90;92.00
25718;DHT22;13574;52.040;5.692;2023-04-06T03:48:00;9.90;92.50
25718;DHT22;13574;52.040;5.692;2023-04-06T03:50:26;10.00;93.10
25718;DHT22;13574;52.040;5.692;2023-04-06T03:52:51;10.10;92.50
25718;DHT22;13574;52.040;5.692;2023-04-06T03:55:17;10.00;92.50
25718;DHT22;13574;52.040;5.692;2023-04-06T03:57:43;10.00;92.60
25718;DHT22;13574;52.040;5.692;2023-04-06T04:00:09;10.10;92.20
25718;DHT22;13574;52.040;5.692;2023-04-06T04:02:35;10.00;92.40
25718;DHT22;13574;52.040;5.692;2023-04-06T04:05:01;9.90;92.20
25718;DHT22;13574;52.040;5.692;2023-04-06T04:07:26;9.90;92.50
25718;DHT22;13574;52.040;5.692;2023-04-06T04:09:52;9.90;92.20
25718;DHT22;13574;52.040;5.692;2023-04-06T04:12:18;9.90;92.60
25718;DHT22;13574;52.040;5.692;2023-04-06T04:14:43;9.80;92.50
25718;DHT22;13574;52.040;5.692;2023-04-06T04:17:09;10.00;92.70
25718;DHT22;13574;52.040;5.692;2023-04-06T04:19:35;10.00;92.60
25718;DHT22;13574;52.040;5.692;2023-04-06T04:22:01;10.00;92.00
25718;DHT22;13574;52.040;5.692;2023-04-06T04:24:29;10.00;92.50
25718;DHT22;13574;52.040;5.692;2023-04-06T04:26:55;10.00;92.20
25718;DHT22;13574;52.040;5.692;2023-04-06T04:29:22;10.10;91.90
25718;DHT22;13574;52.040;5.692;2023-04-06T04:31:48;10.00;92.20
25718;DHT22;13574;52.040;5.692;2023-04-06T04:34:14;9.90;92.50
25718;DHT22;13574;52.040;5.692;2023-04-06T04:36:40;10.10;92.00
25718;DHT22;13574;52.040;5.692;2023-04-06T04:39:07;10.00;92.80
25718;DHT22;13574;52.040;5.692;2023-04-06T04:41:33;9.90;92.90
25718;DHT22;13574;52.040;5.692;2023-04-06T04:43:59;9.90;92.50
25718;DHT22;13574;52.040;5.692;2023-04-06T04:46:24;9.90;92.50
25718;DHT22;13574;52.040;5.692;2023-04-06T04:48:50;9.90;92.50
25718;DHT22;13574;52.040;5.692;2023-04-06T04:51:16;9.80;92.80
25718;DHT22;13574;52.040;5.692;2023-04-06T04:53:41;9.80;92.50
25718;DHT22;13574;52.040;5.692;2023-04-06T04:56:10;9.60;93.20
25718;DHT22;13574;52.040;5.692;2023-04-06T04:58:35;9.70;93.30
25718;DHT22;13574;52.040;5.692;2023-04-06T05:01:01;9.60;93.00
25718;DHT22;13574;52.040;5.692;2023-04-06T05:03:27;9.60;93.50
25718;DHT22;13574;52.040;5.692;2023-04-06T05:05:53;9.60;93.40
25718;DHT22;13574;52.040;5.692;2023-04-06T05:08:19;9.70;92.90
25718;DHT22;13574;52.040;5.692;2023-04-06T05:10:45;9.60;93.30
25718;DHT22;13574;52.040;5.692;2023-04-06T05:13:12;9.70;92.80
25718;DHT22;13574;52.040;5.692;2023-04-06T05:15:38;9.50;93.60
25718;DHT22;13574;52.040;5.692;2023-04-06T05:18:07;9.50;93.20
25718;DHT22;13574;52.040;5.692;2023-04-06T05:20:34;9.40;93.80
25718;DHT22;13574;52.040;5.692;2023-04-06T05:23:00;9.40;93.40
25718;DHT22;13574;52.040;5.692;2023-04-06T05:25:26;9.40;94.20
25718;DHT22;13574;52.040;5.692;2023-04-06T05:27:52;9.50;94.10
25718;DHT22;13574;52.040;5.692;2023-04-06T05:30:18;9.60;94.20
25718;DHT22;13574;52.040;5.692;2023-04-06T05:32:43;9.70;93.40
25718;DHT22;13574;52.040;5.692;2023-04-06T05:35:10;9.70;94.10
25718;DHT22;13574;52.040;5.692;2023-04-06T05:37:36;9.80;93.90
25718;DHT22;13574;52.040;5.692;2023-04-06T05:40:02;9.80;93.80
25718;DHT22;13574;52.040;5.692;2023-04-06T05:42:28;9.90;93.60
25718;DHT22;13574;52.040;5.692;2023-04-06T05:44:53;10.10;93.60
25718;DHT22;13574;52.040;5.692;2023-04-06T05:47:20;10.20;93.60
25718;DHT22;13574;52.040;5.692;2023-04-06T05:49:46;10.30;93.00
25718;DHT22;13574;52.040;5.692;2023-04-06T05:52:11;10.10;93.00
25718;DHT22;13574;52.040;5.692;2023-04-06T05:54:37;10.10;92.90
25718;DHT22;13574;52.040;5.692;2023-04-06T05:57:03;10.30;92.90
25718;DHT22;13574;52.040;5.692;2023-04-06T05:59:32;10.30;92.80
25718;DHT22;13574;52.040;5.692;2023-04-06T06:01:59;10.50;92.90
25718;DHT22;13574;52.040;5.692;2023-04-06T06:04:35;10.50;92.80
25718;DHT22;13574;52.040;5.692;2023-04-06T06:07:00;10.90;92.40
25718;DHT22;13574;52.040;5.692;2023-04-06T06:09:26;10.90;92.40
25718;DHT22;13574;52.040;5.692;2023-04-06T06:11:52;11.00;92.60
25718;DHT22;13574;52.040;5.692;2023-04-06T06:14:18;10.80;92.40
25718;DHT22;13574;52.040;5.692;2023-04-06T06:16:44;10.70;92.90
25718;DHT22;13574;52.040;5.692;2023-04-06T06:19:09;11.00;92.60
25718;DHT22;13574;52.040;5.692;2023-04-06T06:21:35;11.30;93.10
25718;DHT22;13574;52.040;5.692;2023-04-06T06:24:01;11.50;92.40
25718;DHT22;13574;52.040;5.692;2023-04-06T06:26:27;11.70;92.70
25718;DHT22;13574;52.040;5.692;2023-04-06T06:28:53;11.90;92.10
25718;DHT22;13574;52.040;5.692;2023-04-06T06:31:18;12.00;92.00
25718;DHT22;13574;52.040;5.692;2023-04-06T06:33:48;12.10;92.10
25718;DHT22;13574;52.040;5.692;2023-04-06T06:36:17;12.20;92.20
25718;DHT22;13574;52.040;5.692;2023-04-06T06:38:43;12.30;92.10
25718;DHT22;13574;52.040;5.692;2023-04-06T06:41:09;12.30;91.50
25718;DHT22;13574;52.040;5.692;2023-04-06T06:43:34;12.30;91.80
25718;DHT22;13574;52.040;5.692;2023-04-06T06:46:00;12.40;91.40
25718;DHT22;13574;52.040;5.692;2023-04-06T06:48:26;12.30;91.50
25718;DHT22;13574;52.040;5.692;2023-04-06T06:50:52;12.30;91.50
25718;DHT22;13574;52.040;5.692;2023-04-06T06:53:17;12.30;91.70
25718;DHT22;13574;52.040;5.692;2023-04-06T06:55:43;12.40;91.70
25718;DHT22;13574;52.040;5.692;2023-04-06T06:58:09;12.40;92.20
25718;DHT22;13574;52.040;5.692;2023-04-06T07:00:35;12.50;91.80
25718;DHT22;13574;52.040;5.692;2023-04-06T07:03:01;12.40;92.50
25718;DHT22;13574;52.040;5.692;2023-04-06T07:05:27;12.60;91.40
25718;DHT22;13574;52.040;5.692;2023-04-06T07:07:53;12.40;91.60
25718;DHT22;13574;52.040;5.692;2023-04-06T07:10:18;12.50;92.40
25718;DHT22;13574;52.040;5.692;2023-04-06T07:12:44;12.60;92.10
25718;DHT22;13574;52.040;5.692;2023-04-06T07:15:10;12.80;92.40
25718;DHT22;13574;52.040;5.692;2023-04-06T07:17:36;12.90;91.60
25718;DHT22;13574;52.040;5.692;2023-04-06T07:20:02;13.10;91.80
25718;DHT22;13574;52.040;5.692;2023-04-06T07:22:28;13.30;91.40
25718;DHT22;13574;52.040;5.692;2023-04-06T07:24:53;13.50;91.50
25718;DHT22;13574;52.040;5.692;2023-04-06T07:27:20;13.80;90.90
25718;DHT22;13574;52.040;5.692;2023-04-06T07:29:45;14.10;91.00
25718;DHT22;13574;52.040;5.692;2023-04-06T07:32:11;14.20;90.70
25718;DHT22;13574;52.040;5.692;2023-04-06T07:34:40;14.30;90.80
25718;DHT22;13574;52.040;5.692;2023-04-06T07:37:06;14.40;91.00
25718;DHT22;13574;52.040;5.692;2023-04-06T07:39:31;14.40;91.10
25718;DHT22;13574;52.040;5.692;2023-04-06T07:41:57;14.20;90.70
25718;DHT22;13574;52.040;5.692;2023-04-06T07:44:23;14.10;90.60
25718;DHT22;13574;52.040;5.692;2023-04-06T07:46:48;13.90;90.60
25718;DHT22;13574;52.040;5.692;2023-04-06T07:49:14;14.10;90.90
25718;DHT22;13574;52.040;5.692;2023-04-06T07:51:40;14.10;91.10
25718;DHT22;13574;52.040;5.692;2023-04-06T07:54:06;14.10;91.50
25718;DHT22;13574;52.040;5.692;2023-04-06T07:56:32;14.10;91.40
25718;DHT22;13574;52.040;5.692;2023-04-06T07:58:57;14.00;91.20
25718;DHT22;13574;52.040;5.692;2023-04-06T08:01:23;13.90;91.10
25718;DHT22;13574;52.040;5.692;2023-04-06T08:03:50;13.70;91.70
25718;DHT22;13574;52.040;5.692;2023-04-06T08:06:16;13.70;91.70
25718;DHT22;13574;52.040;5.692;2023-04-06T08:08:42;13.60;92.00
25718;DHT22;13574;52.040;5.692;2023-04-06T08:11:09;13.80;92.10
25718;DHT22;13574;52.040;5.692;2023-04-06T08:13:35;13.70;92.50
25718;DHT22;13574;52.040;5.692;2023-04-06T08:16:01;13.80;92.10
25718;DHT22;13574;52.040;5.692;2023-04-06T08:18:27;13.90;92.40
25718;DHT22;13574;52.040;5.692;2023-04-06T08:20:54;14.00;92.50
25718;DHT22;13574;52.040;5.692;2023-04-06T08:23:19;14.10;92.00
25718;DHT22;13574;52.040;5.692;2023-04-06T08:25:45;14.20;92.20
25718;DHT22;13574;52.040;5.692;2023-04-06T08:28:11;14.20;92.00
25718;DHT22;13574;52.040;5.692;2023-04-06T08:30:40;14.40;91.90
25718;DHT22;13574;52.040;5.692;2023-04-06T08:33:05;14.60;91.60
25718;DHT22;13574;52.040;5.692;2023-04-06T08:35:31;14.80;91.10
25718;DHT22;13574;52.040;5.692;2023-04-06T08:37:57;14.90;90.90
25718;DHT22;13574;52.040;5.692;2023-04-06T08:40:23;14.90;90.90
25718;DHT22;13574;52.040;5.692;2023-04-06T08:42:55;14.90;91.30
25718;DHT22;13574;52.040;5.692;2023-04-06T08:45:21;15.00;91.30
25718;DHT22;13574;52.040;5.692;2023-04-06T08:47:51;15.30;90.90
25718;DHT22;13574;52.040;5.692;2023-04-06T08:50:18;15.60;90.40
25718;DHT22;13574;52.040;5.692;2023-04-06T08:52:47;15.70;90.30
25718;DHT22;13574;52.040;5.692;2023-04-06T08:55:13;15.90;90.10
25718;DHT22;13574;52.040;5.692;2023-04-06T08:57:39;15.70;90.40
25718;DHT22;13574;52.040;5.692;2023-04-06T09:00:07;15.90;90.30
25718;DHT22;13574;52.040;5.692;2023-04-06T09:02:41;16.00;90.00
25718;DHT22;13574;52.040;5.692;2023-04-06T09:05:09;16.10;89.50
25718;DHT22;13574;52.040;5.692;2023-04-06T09:07:36;16.20;90.30
25718;DHT22;13574;52.040;5.692;2023-04-06T09:10:05;16.40;90.70
25718;DHT22;13574;52.040;5.692;2023-04-06T09:12:32;16.50;90.20
25718;DHT22;13574;52.040;5.692;2023-04-06T09:14:59;16.50;89.80
25718;DHT22;13574;52.040;5.692;2023-04-06T09:17:32;16.30;90.00
25718;DHT22;13574;52.040;5.692;2023-04-06T09:20:02;16.40;90.10
25718;DHT22;13574;52.040;5.692;2023-04-06T09:22:39;16.50;89.80
25718;DHT22;13574;52.040;5.692;2023-04-06T09:25:05;16.60;90.10
25718;DHT22;13574;52.040;5.692;2023-04-06T09:27:38;16.80;90.40
25718;DHT22;13574;52.040;5.692;2023-04-06T09:32:31;16.60;90.10
25718;DHT22;13574;52.040;5.692;2023-04-06T09:35:09;16.70;90.60
25718;DHT22;13574;52.040;5.692;2023-04-06T09:37:35;16.50;90.20
25718;DHT22;13574;52.040;5.692;2023-04-06T09:40:08;16.70;90.30
25718;DHT22;13574;52.040;5.692;2023-04-06T09:42:34;16.70;90.30
25718;DHT22;13574;52.040;5.692;2023-04-06T09:45:01;16.60;90.40
25718;DHT22;13574;52.040;5.692;2023-04-06T09:47:27;16.50;90.40
25718;DHT22;13574;52.040;5.692;2023-04-06T09:49:57;16.50;90.70
25718;DHT22;13574;52.040;5.692;2023-04-06T09:52:33;16.60;90.70
25718;DHT22;13574;52.040;5.692;2023-04-06T09:55:04;16.70;90.60
25718;DHT22;13574;52.040;5.692;2023-04-06T10:00:07;16.70;90.50
25718;DHT22;13574;52.040;5.692;2023-04-06T10:02:59;16.60;90.60
25718;DHT22;13574;52.040;5.692;2023-04-06T10:05:32;16.50;90.40
25718;DHT22;13574;52.040;5.692;2023-04-06T10:08:02;16.50;91.00
25718;DHT22;13574;52.040;5.692;2023-04-06T10:10:30;16.50;91.00
25718;DHT22;13574;52.040;5.692;2023-04-06T10:12:56;16.50;91.30
25718;DHT22;13574;52.040;5.692;2023-04-06T10:15:22;16.50;91.30
25718;DHT22;13574;52.040;5.692;2023-04-06T10:17:48;16.60;91.20
25718;DHT22;13574;52.040;5.692;2023-04-06T10:20:19;16.60;91.00
25718;DHT22;13574;52.040;5.692;2023-04-06T10:23:10;16.60;91.70
25718;DHT22;13574;52.040;5.692;2023-04-06T10:25:39;16.50;91.40
25718;DHT22;13574;52.040;5.692;2023-04-06T10:28:06;16.50;91.40
25718;DHT22;13574;52.040;5.692;2023-04-06T10:30:34;16.40;91.30
25718;DHT22;13574;52.040;5.692;2023-04-06T10:32:59;16.80;91.40
25718;DHT22;13574;52.040;5.692;2023-04-06T10:35:36;17.00;91.70
25718;DHT22;13574;52.040;5.692;2023-04-06T10:38:04;17.10;91.60
25718;DHT22;13574;52.040;5.692;2023-04-06T10:40:30;17.20;91.20
25718;DHT22;13574;52.040;5.692;2023-04-06T10:43:10;16.80;91.10
25718;DHT22;13574;52.040;5.692;2023-04-06T10:45:37;16.90;91.80
25718;DHT22;13574;52.040;5.692;2023-04-06T10:48:17;16.90;92.00
25718;DHT22;13574;52.040;5.692;2023-04-06T10:50:51;16.80;92.10
25718;DHT22;13574;52.040;5.692;2023-04-06T10:53:35;16.70;92.60
25718;DHT22;13574;52.040;5.692;2023-04-06T10:56:02;16.70;92.60
25718;DHT22;13574;52.040;5.692;2023-04-06T10:58:29;16.80;92.80
25718;DHT22;13574;52.040;5.692;2023-04-06T11:00:56;16.70;93.20
25718;DHT22;13574;52.040;5.692;2023-04-06T11:03:22;16.70;93.20
25718;DHT22;13574;52.040;5.692;2023-04-06T11:05:49;16.60;93.30
25718;DHT22;13574;52.040;5.692;2023-04-06T11:10:48;16.50;94.40
25718;DHT22;13574;52.040;5.692;2023-04-06T11:13:14;16.00;95.30
25718;DHT22;13574;52.040;5.692;2023-04-06T11:15:40;15.70;96.70
25718;DHT22;13574;52.040;5.692;2023-04-06T11:18:06;15.70;97.30
25718;DHT22;13574;52.040;5.692;2023-04-06T11:20:32;15.60;97.30
25718;DHT22;13574;52.040;5.692;2023-04-06T11:22:57;15.40;97.80
25718;DHT22;13574;52.040;5.692;2023-04-06T11:25:25;15.10;98.80
25718;DHT22;13574;52.040;5.692;2023-04-06T11:27:55;14.80;99.00
25718;DHT22;13574;52.040;5.692;2023-04-06T11:30:21;14.60;99.70
25718;DHT22;13574;52.040;5.692;2023-04-06T11:32:46;14.40;99.90
25718;DHT22;13574;52.040;5.692;2023-04-06T11:35:22;14.10;99.90
25718;DHT22;13574;52.040;5.692;2023-04-06T11:37:51;13.80;99.90
25718;DHT22;13574;52.040;5.692;2023-04-06T11:40:21;13.90;99.90
25718;DHT22;13574;52.040;5.692;2023-04-06T11:42:55;13.90;99.90
25718;DHT22;13574;52.040;5.692;2023-04-06T11:45:21;13.90;99.90
25718;DHT22;13574;52.040;5.692;2023-04-06T11:47:56;14.00;99.90
25718;DHT22;13574;52.040;5.692;2023-04-06T11:50:22;13.90;99.90
25718;DHT22;13574;52.040;5.692;2023-04-06T11:52:58;13.60;99.90
25718;DHT22;13574;52.040;5.692;2023-04-06T11:55:25;13.80;99.90
25718;DHT22;13574;52.040;5.692;2023-04-06T11:57:51;13.90;99.90
25718;DHT22;13574;52.040;5.692;2023-04-06T12:00:17;13.80;99.90
25718;DHT22;13574;52.040;5.692;2023-04-06T12:02:46;13.70;99.90
25718;DHT22;13574;52.040;5.692;2023-04-06T12:05:12;13.70;99.90
25718;DHT22;13574;52.040;5.692;2023-04-06T12:07:38;13.50;99.90
25718;DHT22;13574;52.040;5.692;2023-04-06T12:10:04;13.60;99.90
25718;DHT22;13574;52.040;5.692;2023-04-06T12:12:30;13.70;99.90
25718;DHT22;13574;52.040;5.692;2023-04-06T12:14:56;13.60;99.90
25718;DHT22;13574;52.040;5.692;2023-04-06T12:17:22;13.40;99.90
25718;DHT22;13574;52.040;5.692;2023-04-06T12:19:49;13.40;99.90
25718;DHT22;13574;52.040;5.692;2023-04-06T12:22:15;13.40;99.90
25718;DHT22;13574;52.040;5.692;2023-04-06T12:24:41;13.20;99.90
25718;DHT22;13574;52.040;5.692;2023-04-06T12:27:07;13.20;99.90
25718;DHT22;13574;52.040;5.692;2023-04-06T12:29:34;13.10;99.90
25718;DHT22;13574;52.040;5.692;2023-04-06T12:32:00;13.20;99.90
25718;DHT22;13574;52.040;5.692;2023-04-06T12:34:26;13.10;99.90
25718;DHT22;13574;52.040;5.692;2023-04-06T12:36:52;13.00;99.90
25718;DHT22;13574;52.040;5.692;2023-04-06T12:39:18;13.10;99.90
25718;DHT22;13574;52.040;5.692;2023-04-06T12:41:45;13.20;99.90
25718;DHT22;13574;52.040;5.692;2023-04-06T12:44:11;13.10;99.90
25718;DHT22;13574;52.040;5.692;2023-04-06T12:46:37;13.10;99.90
25718;DHT22;13574;52.040;5.692;2023-04-06T12:49:02;13.10;99.90
25718;DHT22;13574;52.040;5.692;2023-04-06T12:51:28;13.20;99.90
25718;DHT22;13574;52.040;5.692;2023-04-06T12:53:54;13.30;99.90
25718;DHT22;13574;52.040;5.692;2023-04-06T12:56:20;13.20;99.90
25718;DHT22;13574;52.040;5.692;2023-04-06T12:58:51;13.30;99.90
25718;DHT22;13574;52.040;5.692;2023-04-06T13:01:17;13.20;99.90
25718;DHT22;13574;52.040;5.692;2023-04-06T13:03:43;13.00;99.90
25718;DHT22;13574;52.040;5.692;2023-04-06T13:06:09;13.10;99.90
25718;DHT22;13574;52.040;5.692;2023-04-06T13:08:35;13.10;99.90
25718;DHT22;13574;52.040;5.692;2023-04-06T13:11:02;13.20;99.90
25718;DHT22;13574;52.040;5.692;2023-04-06T13:13:29;13.40;99.90
25718;DHT22;13574;52.040;5.692;2023-04-06T13:16:03;13.20;99.90
25718;DHT22;13574;52.040;5.692;2023-04-06T13:18:30;13.20;99.90
25718;DHT22;13574;52.040;5.692;2023-04-06T13:20:57;13.20;99.90
25718;DHT22;13574;52.040;5.692;2023-04-06T13:23:26;13.30;99.90
25718;DHT22;13574;52.040;5.692;2023-04-06T13:26:05;13.10;99.90
25718;DHT22;13574;52.040;5.692;2023-04-06T13:28:33;13.10;99.90
25718;DHT22;13574;52.040;5.692;2023-04-06T13:30:59;13.10;99.90
25718;DHT22;13574;52.040;5.692;2023-04-06T13:33:26;13.10;99.90
25718;DHT22;13574;52.040;5.692;2023-04-06T13:35:52;13.00;99.90
25718;DHT22;13574;52.040;5.692;2023-04-06T13:38:17;12.90;99.90
25718;DHT22;13574;52.040;5.692;2023-04-06T13:40:43;12.80;99.90
25718;DHT22;13574;52.040;5.692;2023-04-06T13:43:09;12.80;99.90
25718;DHT22;13574;52.040;5.692;2023-04-06T13:45:35;12.70;99.90
25718;DHT22;13574;52.040;5.692;2023-04-06T13:48:00;12.70;99.90
25718;DHT22;13574;52.040;5.692;2023-04-06T13:50:26;12.70;99.90
25718;DHT22;13574;52.040;5.692;2023-04-06T13:52:53;12.80;99.90
25718;DHT22;13574;52.040;5.692;2023-04-06T13:55:18;13.00;99.90
25718;DHT22;13574;52.040;5.692;2023-04-06T13:57:44;12.80;99.90
25718;DHT22;13574;52.040;5.692;2023-04-06T14:00:11;12.60;99.90
25718;DHT22;13574;52.040;5.692;2023-04-06T14:02:38;12.60;99.90
25718;DHT22;13574;52.040;5.692;2023-04-06T14:05:05;12.70;99.90
25718;DHT22;13574;52.040;5.692;2023-04-06T14:07:33;12.60;99.90
25718;DHT22;13574;52.040;5.692;2023-04-06T14:09:59;12.70;99.90
25718;DHT22;13574;52.040;5.692;2023-04-06T14:12:25;12.50;99.90
25718;DHT22;13574;52.040;5.692;2023-04-06T14:14:52;12.60;99.90
25718;DHT22;13574;52.040;5.692;2023-04-06T14:17:18;12.70;99.90
25718;DHT22;13574;52.040;5.692;2023-04-06T14:19:43;12.60;99.90
25718;DHT22;13574;52.040;5.692;2023-04-06T14:22:09;12.60;99.90
25718;DHT22;13574;52.040;5.692;2023-04-06T14:24:35;12.40;99.90
25718;DHT22;13574;52.040;5.692;2023-04-06T14:27:02;12.20;99.90
25718;DHT22;13574;52.040;5.692;2023-04-06T14:29:28;12.30;99.90
25718;DHT22;13574;52.040;5.692;2023-04-06T14:31:53;12.20;99.90
25718;DHT22;13574;52.040;5.692;2023-04-06T14:34:28;12.20;99.90
25718;DHT22;13574;52.040;5.692;2023-04-06T14:36:53;12.20;99.90
25718;DHT22;13574;52.040;5.692;2023-04-06T14:39:19;12.30;99.90
25718;DHT22;13574;52.040;5.692;2023-04-06T14:41:45;12.30;99.90
25718;DHT22;13574;52.040;5.692;2023-04-06T14:44:13;12.10;99.90
25718;DHT22;13574;52.040;5.692;2023-04-06T14:46:39;12.20;99.90
25718;DHT22;13574;52.040;5.692;2023-04-06T14:49:05;12.10;99.90
25718;DHT22;13574;52.040;5.692;2023-04-06T14:51:33;12.20;99.90
25718;DHT22;13574;52.040;5.692;2023-04-06T14:54:00;12.10;99.90
25718;DHT22;13574;52.040;5.692;2023-04-06T14:56:28;12.10;99.90
25718;DHT22;13574;52.040;5.692;2023-04-06T14:58:57;12.20;99.90
25718;DHT22;13574;52.040;5.692;2023-04-06T15:01:24;12.30;99.90
25718;DHT22;13574;52.040;5.692;2023-04-06T15:03:50;12.30;99.90
25718;DHT22;13574;52.040;5.692;2023-04-06T15:06:17;12.30;99.90
25718;DHT22;13574;52.040;5.692;2023-04-06T15:08:43;12.20;99.90
25718;DHT22;13574;52.040;5.692;2023-04-06T15:11:09;12.30;99.90
25718;DHT22;13574;52.040;5.692;2023-04-06T15:13:35;12.40;99.90
25718;DHT22;13574;52.040;5.692;2023-04-06T15:16:01;12.30;99.90
25718;DHT22;13574;52.040;5.692;2023-04-06T15:18:27;12.20;99.90
25718;DHT22;13574;52.040;5.692;2023-04-06T15:20:52;12.30;99.90
25718;DHT22;13574;52.040;5.692;2023-04-06T15:23:18;12.30;99.90
25718;DHT22;13574;52.040;5.692;2023-04-06T15:25:44;12.40;99.90
25718;DHT22;13574;52.040;5.692;2023-04-06T15:28:10;12.20;99.90
25718;DHT22;13574;52.040;5.692;2023-04-06T15:30:36;12.20;99.90
25718;DHT22;13574;52.040;5.692;2023-04-06T15:33:03;12.10;99.90
25718;DHT22;13574;52.040;5.692;2023-04-06T15:35:30;12.00;99.90
25718;DHT22;13574;52.040;5.692;2023-04-06T15:37:57;11.90;99.90
25718;DHT22;13574;52.040;5.692;2023-04-06T15:40:23;11.90;99.90